• Join FlightAware (Why Join?)
  • Login
  • US Flag 
05:24PM EST


 

Airport Tracker/Info


-or-


 

Live Flight TrackerFlight Track Log ✈ N2674T ✈ 09-Aug-2013 ✈ KHVS - KFLO

Flight Track Log - Related Links

Times and Time Zones

All times are in EDT time to prevent confusion due to time zone crossing. See the N2674T flight status page for this flight to view local times or setup timezone preferences in your user account.

Time Position Orientation Groundspeed Altitude Reporting Facility
EDT Latitude Longitude Course Direction KTS MPH feet Rate Location/Type
10:23AM 34.3204 -79.9825 125° Southeast  Level FlightAware Approximate
10:24AM 34.3091 -79.9631 125° Southeast  Level FlightAware Approximate
10:25AM 34.2979 -79.9438 125° Southeast  Level FlightAware Approximate
10:26AM 34.2866 -79.9245 125° Southeast  Level FlightAware Approximate
10:27AM 34.2754 -79.9053 125° Southeast  Level FlightAware Approximate
10:28AM 34.2641 -79.8860 125° Southeast  Level FlightAware Approximate
10:29AM 34.2528 -79.8667 125° Southeast  Level FlightAware Approximate
10:30AM 34.2416 -79.8474 125° Southeast  Level FlightAware Approximate
10:31AM 34.2314 -79.8274 112° Southeast  Level FlightAware Approximate
10:32AM 34.2241 -79.8055 112° Southeast  Level FlightAware Approximate
10:33AM 34.2168 -79.7836 112° Southeast  Level FlightAware Approximate
10:34AM 34.2067 -79.7634 121° Southeast  Level FlightAware Approximate
10:35AM 34.1966 -79.7432 121° Southeast  Level FlightAware Approximate
10:36AM 34.1865 -79.7230 121° Southeast  Level FlightAware Approximate
10:37AM 34.1833 -79.7167 121° Southeast  Level FlightAware Approximate
10:38AM 34.1854 -79.7239 121° Southeast  Level Estimated
10:39AM 34.1833 -79.7167 121° Southeast  Level FlightAware Approximate
10:40AM 34.1854 -79.7239 121° Southeast  Level Estimated
10:41AM 34.1833 -79.7167 121° Southeast  Level FlightAware Approximate
10:42AM 34.1854 -79.7239 121° Southeast  Level Estimated
10:43AM 34.1833 -79.7167 121° Southeast  Level FlightAware Approximate
10:44AM 34.1854 -79.7239 121° Southeast  Level Estimated
10:45AM 34.1833 -79.7167 121° Southeast  Level FlightAware Approximate
10:46AM 34.1854 -79.7239 121° Southeast  Level Estimated
10:47AM 34.1833 -79.7167 121° Southeast  Level FlightAware Approximate